createdAt,value
2023-03-24T00:30:25.275Z,99888.94
2023-03-24T00:32:52.424Z,99896.31
2023-03-24T00:35:19.462Z,99885.84
2023-03-24T00:37:46.789Z,99877.97
2023-03-24T00:40:16.656Z,99874.78
2023-03-24T00:42:45.871Z,99877.94
2023-03-24T00:45:19.794Z,99875.00
2023-03-24T00:47:49.894Z,99866.69
2023-03-24T00:50:20.606Z,99867.78
2023-03-24T00:52:49.275Z,99873.16
2023-03-24T00:55:16.253Z,99864.34
2023-03-24T00:57:50.845Z,99864.34
2023-03-24T01:00:24.353Z,99853.72
2023-03-24T01:02:53.952Z,99840.38
2023-03-24T01:05:28.998Z,99854.41
2023-03-24T01:08:03.606Z,99846.44
2023-03-24T01:10:33.760Z,99840.75
2023-03-24T01:13:00.947Z,99833.09
2023-03-24T01:15:33.633Z,99827.63
2023-03-24T01:18:03.333Z,99824.59
2023-03-24T01:20:33.599Z,99822.81
2023-03-24T01:23:01.576Z,99815.31
2023-03-24T01:25:28.115Z,99807.94
2023-03-24T01:27:54.774Z,99815.47
2023-03-24T01:30:26.622Z,99810.81
2023-03-24T01:32:53.675Z,99800.97
2023-03-24T01:35:21.982Z,99794.50
2023-03-24T01:37:49.485Z,99790.00
2023-03-24T01:40:24.873Z,99793.28
2023-03-24T01:42:51.685Z,99766.91
2023-03-24T01:46:12.275Z,99758.59
2023-03-24T01:48:42.269Z,99766.25
2023-03-24T01:51:12.129Z,99771.06
2023-03-24T01:53:44.815Z,99772.03
2023-03-24T01:56:13.243Z,99765.06
2023-03-24T01:58:45.888Z,99762.22
2023-03-24T02:01:12.746Z,99754.53
2023-03-24T02:03:41.869Z,99757.06
2023-03-24T02:09:55.023Z,99738.69
2023-03-24T02:12:21.813Z,99733.63
2023-03-24T02:14:49.353Z,99730.94
2023-03-24T02:17:25.682Z,99736.28
2023-03-24T02:20:16.425Z,99721.28
2023-03-24T02:23:04.100Z,99715.47
2023-03-24T02:25:48.866Z,99718.00
2023-03-24T02:28:36.939Z,99697.50
2023-03-24T02:31:19.408Z,99711.84
2023-03-24T02:34:25.377Z,99702.00
2023-03-24T02:37:10.725Z,99699.16
2023-03-24T02:40:08.147Z,99700.69
2023-03-24T02:42:47.908Z,99703.88
2023-03-24T02:45:29.580Z,99708.38
2023-03-24T02:48:11.080Z,99706.03
2023-03-24T02:51:03.623Z,99707.88
2023-03-24T02:53:39.528Z,99699.44
2023-03-24T02:56:09.822Z,99698.72
2023-03-24T02:58:49.603Z,99687.84
2023-03-24T03:01:31.199Z,99689.81
2023-03-24T03:04:03.071Z,99682.84
2023-03-24T03:06:34.565Z,99676.50
2023-03-24T03:09:07.730Z,99665.84
2023-03-24T03:11:34.453Z,99665.69
2023-03-24T03:14:06.763Z,99663.03
2023-03-24T03:16:46.597Z,99657.84
2023-03-24T03:19:21.035Z,99659.34
2023-03-24T03:21:50.581Z,99650.53
2023-03-24T03:24:27.037Z,99653.19
2023-03-24T03:27:02.457Z,99647.75
2023-03-24T03:29:35.568Z,99638.38
2023-03-24T03:32:08.159Z,99640.22
2023-03-24T03:34:46.949Z,99636.06
2023-03-24T03:37:27.797Z,99630.88
2023-03-24T03:40:02.608Z,99629.59
2023-03-24T03:42:29.162Z,99628.41
2023-03-24T03:44:55.890Z,99619.25
2023-03-24T03:47:23.112Z,99612.03
2023-03-24T03:49:51.254Z,99608.06
2023-03-24T03:52:19.020Z,99606.56
2023-03-24T03:54:45.598Z,99603.72
2023-03-24T03:57:14.602Z,99606.06
2023-03-24T03:59:41.233Z,99597.75
2023-03-24T04:02:29.186Z,99595.44
2023-03-24T04:05:26.290Z,99588.09
2023-03-24T04:08:03.964Z,99586.75
2023-03-24T04:10:48.799Z,99579.44
2023-03-24T04:13:21.427Z,99572.09
2023-03-24T04:15:56.976Z,99576.09
2023-03-24T04:18:32.100Z,99573.25
2023-03-24T04:21:07.640Z,99561.59
2023-03-24T04:23:46.446Z,99570.09
2023-03-24T04:26:26.581Z,99567.44
2023-03-24T04:29:17.904Z,99558.28
2023-03-24T04:31:53.639Z,99554.63
2023-03-24T04:37:03.981Z,99545.78
2023-03-24T04:39:35.689Z,99544.78
2023-03-24T04:42:04.526Z,99544.13
2023-03-24T04:44:33.389Z,99547.75
2023-03-24T04:47:02.620Z,99540.25
2023-03-24T04:49:29.541Z,99532.44
2023-03-24T04:51:56.552Z,99532.44
2023-03-24T04:54:23.795Z,99532.59
2023-03-24T04:56:52.885Z,99523.63
2023-03-24T04:59:19.809Z,99529.94
2023-03-24T05:01:52.549Z,99524.78
2023-03-24T05:04:21.792Z,99521.28
2023-03-24T05:06:51.605Z,99522.75
2023-03-24T05:09:21.401Z,99517.94
2023-03-24T05:11:48.398Z,99509.91
2023-03-24T05:14:15.649Z,99508.44
2023-03-24T05:16:42.442Z,99517.94
2023-03-24T05:19:09.246Z,99514.44
2023-03-24T05:21:36.038Z,99512.09
2023-03-24T05:24:02.867Z,99511.44
2023-03-24T05:26:31.326Z,99513.25
2023-03-24T05:28:59.641Z,99510.09
2023-03-24T05:31:26.110Z,99512.09
2023-03-24T05:33:52.625Z,99505.09
2023-03-24T05:36:19.149Z,99519.06
2023-03-24T05:38:45.721Z,99522.44
2023-03-24T05:41:12.331Z,99513.06
2023-03-24T05:43:38.784Z,99511.75
2023-03-24T05:46:05.555Z,99503.06
2023-03-24T05:48:32.280Z,99501.06
2023-03-24T05:50:58.718Z,99498.22
2023-03-24T05:53:25.357Z,99498.75
2023-03-24T05:55:53.634Z,99501.06
2023-03-24T05:58:21.471Z,99501.06
2023-03-24T06:00:48.084Z,99486.06
2023-03-24T06:03:17.287Z,99497.41
2023-03-24T06:05:46.124Z,99491.72
2023-03-24T06:08:13.109Z,99487.03
2023-03-24T06:10:40.649Z,99485.38
2023-03-24T06:13:09.044Z,99477.03
2023-03-24T06:15:36.235Z,99485.38
2023-03-24T06:18:05.294Z,99483.34
2023-03-24T06:20:32.185Z,99471.69
2023-03-24T06:22:59.884Z,99465.00
2023-03-24T06:25:28.584Z,99467.63
2023-03-24T06:27:55.291Z,99460.13
2023-03-24T06:30:21.854Z,99457.28
2023-03-24T06:32:48.736Z,99456.63
2023-03-24T06:35:17.364Z,99457.75
2023-03-24T06:37:44.969Z,99450.44
2023-03-24T06:40:15.789Z,99460.03
2023-03-24T06:42:42.499Z,99454.56
2023-03-24T06:45:09.971Z,99449.50
2023-03-24T06:47:39.506Z,99446.00
2023-03-24T06:50:10.477Z,99454.22
2023-03-24T06:52:37.316Z,99446.81
2023-03-24T06:55:05.656Z,99448.75
2023-03-24T06:57:32.232Z,99447.09
2023-03-24T06:59:58.670Z,99446.81
2023-03-24T07:02:25.303Z,99442.78
2023-03-24T07:05:10.662Z,99437.78
2023-03-24T07:08:16.699Z,99437.09
2023-03-24T07:10:24.044Z,99433.34
2023-03-24T07:12:50.490Z,99428.47
2023-03-24T07:15:17.168Z,99430.31
2023-03-24T07:17:43.675Z,99414.81
2023-03-24T07:20:10.558Z,99414.75
2023-03-24T07:22:37.103Z,99414.53
2023-03-24T07:25:04.955Z,99410.97
2023-03-24T07:27:34.998Z,99410.16
2023-03-24T07:30:02.304Z,99409.78
2023-03-24T07:32:35.057Z,99419.22
2023-03-24T07:35:02.644Z,99407.72
2023-03-24T07:37:29.097Z,99404.09
2023-03-24T07:39:56.331Z,99405.28
2023-03-24T07:42:22.935Z,99402.34
2023-03-24T07:44:49.458Z,99409.59
2023-03-24T07:47:16.062Z,99418.03
2023-03-24T07:49:42.590Z,99401.78
2023-03-24T07:52:09.236Z,99415.69
2023-03-24T07:54:35.983Z,99412.59
2023-03-24T07:57:02.530Z,99419.63
2023-03-24T07:59:29.816Z,99414.16
2023-03-24T08:01:59.809Z,99406.03
2023-03-24T08:04:29.417Z,99410.38
2023-03-24T08:06:55.903Z,99405.38
2023-03-24T08:09:24.354Z,99395.75
2023-03-24T08:11:51.070Z,99399.78
2023-03-24T08:14:17.712Z,99396.28
2023-03-24T08:16:46.427Z,99394.63
2023-03-24T08:19:13.273Z,99401.84
2023-03-24T08:21:40.196Z,99395.19
2023-03-24T08:24:07.482Z,99403.84
2023-03-24T08:26:35.535Z,99401.03
2023-03-24T08:29:03.046Z,99397.84
2023-03-24T08:31:37.226Z,99388.34
2023-03-24T08:34:06.588Z,99405.75
2023-03-24T08:36:33.481Z,99389.72
2023-03-24T08:39:01.602Z,99380.81
2023-03-24T08:41:35.066Z,99386.50
2023-03-24T08:44:07.140Z,99410.56
2023-03-24T08:46:34.603Z,99400.88
2023-03-24T08:49:02.461Z,99389.84
2023-03-24T08:51:30.058Z,99393.16
2023-03-24T08:53:56.648Z,99395.75
2023-03-24T08:56:24.003Z,99395.34
2023-03-24T08:58:53.459Z,99401.78
2023-03-24T09:01:23.408Z,99401.22
2023-03-24T09:03:50.039Z,99404.31
2023-03-24T09:06:17.327Z,99410.88
2023-03-24T09:08:43.821Z,99410.03
2023-03-24T09:11:18.761Z,99420.38
2023-03-24T09:13:45.987Z,99414.09
2023-03-24T09:16:12.574Z,99418.25
2023-03-24T09:18:39.844Z,99423.41
2023-03-24T09:21:07.752Z,99425.97
2023-03-24T09:23:34.923Z,99421.91
2023-03-24T09:26:02.660Z,99423.88
2023-03-24T09:28:29.234Z,99428.59
2023-03-24T09:31:03.820Z,99433.03
2023-03-24T09:33:31.053Z,99434.44
2023-03-24T09:36:00.764Z,99436.97
2023-03-24T09:38:31.491Z,99431.00
2023-03-24T09:41:03.294Z,99432.72
2023-03-24T09:43:52.128Z,99431.31
2023-03-24T09:46:31.277Z,99435.91
2023-03-24T09:48:58.398Z,99437.56
2023-03-24T09:51:29.539Z,99438.56
2023-03-24T09:54:14.502Z,99430.97
2023-03-24T09:56:44.485Z,99439.78
2023-03-24T09:59:17.900Z,99444.19
2023-03-24T10:18:18.642Z,99443.38
2023-03-24T10:20:54.918Z,99457.28
2023-03-24T10:23:36.539Z,99451.09
2023-03-24T10:26:18.043Z,99450.50
2023-03-24T10:29:10.192Z,99447.78
2023-03-24T10:31:38.769Z,99443.69
2023-03-24T10:34:09.581Z,99439.31
2023-03-24T10:36:38.380Z,99444.25
2023-03-24T10:39:18.591Z,99449.97
2023-03-24T10:41:49.055Z,99452.00
2023-03-24T10:44:15.746Z,99452.13
2023-03-24T10:46:54.924Z,99456.91
2023-03-24T10:49:23.332Z,99447.56
2023-03-24T10:51:52.341Z,99442.34
2023-03-24T10:54:22.723Z,99455.19
2023-03-24T11:27:28.234Z,99454.84
